Northeast Coast - north of Cape St. John: Past 24 Hour Conditions

 

Englee

08:30 PM NDT 16 April 2014
This table is a summary of hourly weather conditions for the past 24 hours.
Date / Time
(NDT)
Wind(knots) Conditions Visibility(km) Pressure(kPa) Air tempC) Relative humidity(%) Dew pointC)
16 April 2014
20:30 WSW 38 gust 50 N/A N/A 100.8 0 80 -3
19:30 W 30 gust 36 N/A N/A 100.7 3 79 -1
18:30 W 27 gust 37 N/A N/A 100.5 4 82 1
17:30 SSW 28 gust 36 N/A N/A 100.2 9 90 8
16:30 S 30 gust 45 N/A N/A 100.1 9 83 6
15:30 S 29 gust 41 N/A N/A 100.1 10 79 6
14:30 S 26 gust 37 N/A N/A 100.2 12 74 7
13:30 S 32 gust 41 N/A N/A 100.3 11 79 7
12:30 S 20 gust 34 N/A N/A 100.5 10 80 6
11:30 S 28 N/A N/A 100.5 10 87 8
10:30 S 24 gust 29 N/A N/A 100.5 9 86 7
9:30 S 18 N/A N/A 100.6 10 85 7
8:30 SSW 21 N/A N/A 100.7 8 92 7
7:30 SSE 8 N/A N/A 100.7 7 96 6
6:30 S 17 gust 22 N/A N/A 100.7 7 96 6
5:30 SSW 18 gust 24 N/A N/A 100.7 7 96 6
4:30 ENE 8 N/A N/A 100.8 4 99 4
3:30 ENE 10 gust 16 N/A N/A 100.8 3 99 3
2:30 E 9 N/A N/A 100.9 4 94 3
1:30 ESE 6 N/A N/A 101.0 5 100 5
0:30 SE 13 N/A N/A 101.0 1 97 1
15 April 2014
23:30 SE 11 N/A N/A 101.1 2 97 2
22:30 E 11 N/A N/A 101.1 3 97 3
21:30 E 6 N/A N/A 101.1 9 88 7
20:30 SW 16 N/A N/A 101.1 9 91 8
 
Map of Atlantic - Newfoundland marine weather areas Southwestern Grand Banks - 44138 Banquereau - 44139 Tail of the Bank - 44140 Nickerson Bank - 44251 Northeast Burgeo Bank - 44255 Blanc-Sablon Airport Cap Whittle Chevery Natashquan Airport Heath Point Miscou Island Grand Étang Ingonish Beach North Mountain St.Paul Island J.A. Douglas McCurdy Sydney Airport Charlottetown Airport East Point North Cape Argentia Bonavista Burgeo Cape Race Corner Brook Daniel's Harbour Englee Ferolle Point La Scie Port aux Basques Rocky Harbour Sagona Island St. Anthony Airport St. John's Int'l Airport St. Lawrence Stephenville Airport Twillingate Winterland Wreckhouse Cartwright Airport Mary's Harbour Grates Cove Pool's Island Marticot Island Long Pond Îles de la Madeleine Airport
Legend: buoyBuoy land stationLand Station